Time;durP1;ratioP1;P1;durP2;ratioP2;P2;SDS_P1;SDS_P2;PMS_P1;PMS_P2;Temp;Humidity;BMP_temperature;BMP_pressure;BME280_temperature;BME280_humidity;BME280_pressure;Samples;Min_cycle;Max_cycle;Signal;HPM_P1;HPM_P2
2021/12/12 00:01:46;;;;;;;;;;;;;;;27.16;57.98;95471.95;605244;234;64332;-72
2021/12/12 00:04:16;;;;;;;;;;;;;;;27.15;57.89;95471.18;598431;237;63060;-68
2021/12/12 00:06:48;;;;;;;;;;;;;;;27.16;58.44;95483.55;605191;234;64567;-67
2021/12/12 00:09:17;;;;;;;;;;;;;;;27.16;58.82;95485.44;598568;237;66541;-67
2021/12/12 00:11:44;;;;;;;;;;;;;;;27.14;58.98;95480.38;605234;234;65690;-68
2021/12/12 00:14:13;;;;;;;;;;;;;;;27.12;58.39;95481.86;605229;234;66693;-68
2021/12/12 00:16:41;;;;;;;;;;;;;;;27.11;58.25;95481.08;605232;234;67072;-71
2021/12/12 00:19:10;;;;;;;;;;;;;;;27.11;59.45;95486.47;605207;234;62776;-70
2021/12/12 00:21:39;;;;;;;;;;;;;;;27.09;60.04;95510.33;605281;232;64359;-71
2021/12/12 00:24:08;;;;;;;;;;;;;;;27.10;58.34;95494.92;605209;232;66523;-70
2021/12/12 00:26:35;;;;;;;;;;;;;;;27.10;60.54;95489.53;605203;234;65089;-70
2021/12/12 00:29:03;;;;;;;;;;;;;;;27.10;59.08;95500.32;605179;234;66978;-70
2021/12/12 00:31:31;;;;;;;;;;;;;;;27.07;58.66;95490.23;605185;234;67013;-70
2021/12/12 00:33:59;;;;;;;;;;;;;;;27.06;58.61;95527.17;605220;234;62989;-67
2021/12/12 00:36:27;;;;;;;;;;;;;;;27.05;59.73;95531.01;605190;232;66811;-67
2021/12/12 00:38:57;;;;;;;;;;;;;;;27.06;58.38;95537.17;605230;234;66686;-67
2021/12/12 00:41:29;;;;;;;;;;;;;;;27.04;58.55;95540.23;598423;237;62799;-67
2021/12/12 00:43:58;;;;;;;;;;;;;;;27.04;59.03;95577.98;605022;232;66846;-67
2021/12/12 00:46:26;;;;;;;;;;;;;;;27.01;59.68;95594.85;605187;234;64622;-67
2021/12/12 00:48:54;;;;;;;;;;;;;;;27.01;59.04;95605.64;605282;234;65113;-67
2021/12/12 00:51:23;;;;;;;;;;;;;;;26.99;59.05;95607.88;605197;234;64493;-67
2021/12/12 00:53:51;;;;;;;;;;;;;;;27.01;60.48;95630.68;605142;232;64722;-67
2021/12/12 00:56:19;;;;;;;;;;;;;;;26.96;59.66;95624.75;605159;234;62933;-67
2021/12/12 00:58:48;;;;;;;;;;;;;;;26.92;60.54;95640.03;605146;234;65084;-67
2021/12/12 01:01:17;;;;;;;;;;;;;;;26.89;60.44;95643.41;605217;234;66463;-67
2021/12/12 01:03:46;;;;;;;;;;;;;;;26.89;60.50;95644.19;605163;232;65082;-67
2021/12/12 01:06:14;;;;;;;;;;;;;;;26.88;60.15;95642.63;605196;234;64667;-67
2021/12/12 01:08:43;;;;;;;;;;;;;;;26.85;61.10;95602.11;605211;234;64723;-67
2021/12/12 01:11:14;;;;;;;;;;;;;;;26.83;60.56;95583.58;605167;234;64955;-67
2021/12/12 01:13:42;;;;;;;;;;;;;;;26.83;59.65;95563.92;605224;233;66997;-67
2021/12/12 01:16:14;;;;;;;;;;;;;;;26.83;61.12;95555.84;605247;234;66734;-67
2021/12/12 01:18:43;;;;;;;;;;;;;;;26.82;60.43;95565.03;605188;234;62954;-67
2021/12/12 01:21:14;;;;;;;;;;;;;;;26.79;61.14;95545.75;605194;234;66752;-67
2021/12/12 01:23:53;;;;;;;;;;;;;;;26.79;60.78;95518.80;598495;234;66811;-67
2021/12/12 01:26:21;;;;;;;;;;;;;;;26.79;60.92;95508.02;605199;234;64729;-67
2021/12/12 01:28:54;;;;;;;;;;;;;;;26.77;60.96;95509.49;605258;234;66727;-67
2021/12/12 01:31:25;;;;;;;;;;;;;;;26.75;62.32;95501.73;605201;234;67493;-70
2021/12/12 01:33:59;;;;;;;;;;;;;;;26.74;60.67;95500.18;605190;233;62759;-70
2021/12/12 01:36:26;;;;;;;;;;;;;;;26.75;61.06;95506.35;605041;232;64749;-70
2021/12/12 01:38:54;;;;;;;;;;;;;;;26.72;65.16;95494.34;605151;234;64401;-70
2021/12/12 01:41:23;;;;;;;;;;;;;;;26.71;63.58;95490.09;605231;234;65134;-70
2021/12/12 01:43:52;;;;;;;;;;;;;;;26.70;61.13;95490.42;598525;235;66901;-70
2021/12/12 01:46:21;;;;;;;;;;;;;;;26.70;63.30;95493.90;605184;234;67185;-67
2021/12/12 01:48:50;;;;;;;;;;;;;;;26.68;62.31;95501.56;605135;232;65042;-67
2021/12/12 01:51:19;;;;;;;;;;;;;;;26.68;61.43;95528.52;605212;234;66978;-67
2021/12/12 01:53:48;;;;;;;;;;;;;;;26.66;62.11;95513.81;605216;234;66763;-67
2021/12/12 01:56:22;;;;;;;;;;;;;;;26.67;60.79;95526.15;606774;233;64829;-67
2021/12/12 01:58:51;;;;;;;;;;;;;;;26.65;63.02;95545.34;608668;233;66861;-67
2021/12/12 02:01:20;;;;;;;;;;;;;;;26.65;63.54;95566.89;608650;233;64661;-67
2021/12/12 02:03:49;;;;;;;;;;;;;;;26.65;62.43;95580.37;601908;234;62777;-67
2021/12/12 02:06:18;;;;;;;;;;;;;;;26.65;61.91;95574.98;608681;233;64638;-67
2021/12/12 02:08:47;;;;;;;;;;;;;;;26.63;62.23;95582.64;608698;233;66813;-68
2021/12/12 02:11:16;;;;;;;;;;;;;;;26.64;63.31;95615.76;608637;233;65021;-67
2021/12/12 02:13:45;;;;;;;;;;;;;;;26.61;61.47;95576.80;608682;233;67174;-67
2021/12/12 02:16:13;;;;;;;;;;;;;;;26.61;65.58;95614.53;608698;233;66866;-67
2021/12/12 02:18:45;;;;;;;;;;;;;;;26.60;61.85;95618.36;608694;233;65007;-67
2021/12/12 02:21:21;;;;;;;;;;;;;;;26.59;63.54;95624.08;608600;233;66948;-67
2021/12/12 02:37:26;;;;;;;;;;;;;;;26.52;63.08;95632.74;608668;233;64789;-67
2021/12/12 02:39:54;;;;;;;;;;;;;;;26.51;62.12;95618.47;608714;233;64536;-67
2021/12/12 02:42:23;;;;;;;;;;;;;;;26.49;61.15;95590.27;608733;233;65244;-66
2021/12/12 02:44:56;;;;;;;;;;;;;;;26.50;63.99;95589.94;608702;233;64890;-67
2021/12/12 02:47:31;;;;;;;;;;;;;;;26.52;64.54;95605.80;608626;232;66811;-67
2021/12/12 02:52:23;;;;;;;;;;;;;;;26.46;62.31;95625.97;608698;233;66765;-67
2021/12/12 02:54:50;;;;;;;;;;;;;;;26.46;62.61;95602.51;601878;235;64079;-67
2021/12/12 02:57:18;;;;;;;;;;;;;;;26.47;62.58;95620.26;605833;231;62781;-67
2021/12/12 02:59:48;;;;;;;;;;;;;;;26.47;63.41;95641.03;605191;234;64488;-67
2021/12/12 03:02:18;;;;;;;;;;;;;;;26.46;63.11;95625.97;605190;234;66860;-67
2021/12/12 03:04:46;;;;;;;;;;;;;;;26.45;62.07;95637.88;605232;234;65063;-67
2021/12/12 03:07:13;;;;;;;;;;;;;;;26.43;63.45;95627.44;605239;234;66928;-67
2021/12/12 03:09:42;;;;;;;;;;;;;;;26.44;62.60;95641.71;605249;234;66787;-70
2021/12/12 03:12:11;;;;;;;;;;;;;;;26.47;64.08;95635.64;605182;234;64994;-70
2021/12/12 03:14:40;;;;;;;;;;;;;;;26.48;62.87;95627.20;605235;234;64399;-70
2021/12/12 03:17:09;;;;;;;;;;;;;;;26.44;63.67;95639.80;605189;232;66865;-70
2021/12/12 03:19:37;;;;;;;;;;;;;;;26.44;63.02;95653.27;605243;232;65208;-70
2021/12/12 03:22:09;;;;;;;;;;;;;;;26.45;62.37;95632.49;605260;234;66532;-70
2021/12/12 03:24:37;;;;;;;;;;;;;;;26.45;62.88;95659.43;605211;234;66781;-70
2021/12/12 03:27:06;;;;;;;;;;;;;;;26.47;61.59;95652.58;605192;234;65030;-70
2021/12/12 03:29:33;;;;;;;;;;;;;;;26.41;62.06;95635.09;605223;234;65063;-70
2021/12/12 03:32:03;;;;;;;;;;;;;;;26.41;62.00;95626.20;605230;234;64635;-70
2021/12/12 03:34:32;;;;;;;;;;;;;;;26.42;61.30;95662.80;605181;234;65101;-71
2021/12/12 03:37:00;;;;;;;;;;;;;;;26.40;62.49;95662.35;605247;234;64591;-70
2021/12/12 03:39:29;;;;;;;;;;;;;;;26.40;61.31;95622.73;605239;234;65423;-70
2021/12/12 03:41:58;;;;;;;;;;;;;;;26.41;62.12;95663.91;605218;234;65032;-70
2021/12/12 03:44:27;;;;;;;;;;;;;;;26.40;61.33;95671.21;605240;234;67168;-70
2021/12/12 03:46:56;;;;;;;;;;;;;;;26.41;61.83;95663.91;605223;234;67122;-70
2021/12/12 03:49:24;;;;;;;;;;;;;;;26.40;61.17;95651.58;605260;234;63712;-70
2021/12/12 03:51:52;;;;;;;;;;;;;;;26.39;63.03;95652.71;605167;234;66745;-70
2021/12/12 03:54:19;;;;;;;;;;;;;;;26.39;62.38;95650.02;605225;234;66673;-67
2021/12/12 03:56:47;;;;;;;;;;;;;;;26.43;62.95;95678.61;605712;233;64912;-67
2021/12/12 03:59:15;;;;;;;;;;;;;;;26.38;62.14;95684.22;608675;233;67045;-67
2021/12/12 04:01:44;;;;;;;;;;;;;;;26.37;61.99;95693.44;608732;233;66805;-66
2021/12/12 04:04:14;;;;;;;;;;;;;;;26.34;62.54;95675.27;608694;233;65052;-70
2021/12/12 04:06:41;;;;;;;;;;;;;;;26.38;63.10;95689.61;601836;235;66777;-70
2021/12/12 04:09:10;;;;;;;;;;;;;;;26.37;63.52;95695.35;608727;233;66133;-70
2021/12/12 04:11:39;;;;;;;;;;;;;;;26.34;63.33;95689.52;608709;231;63063;-70
2021/12/12 04:14:07;;;;;;;;;;;;;;;26.33;62.35;95684.48;608715;233;64240;-70
2021/12/12 04:16:36;;;;;;;;;;;;;;;26.33;62.79;95697.95;608713;233;64653;-70
2021/12/12 04:19:04;;;;;;;;;;;;;;;26.31;64.14;95710.95;608703;230;65204;-70
2021/12/12 04:21:32;;;;;;;;;;;;;;;26.30;62.61;95720.95;608681;233;66753;-70
2021/12/12 04:24:00;;;;;;;;;;;;;;;26.29;62.37;95722.05;608721;233;66613;-70
2021/12/12 04:26:29;;;;;;;;;;;;;;;26.26;64.51;95727.33;608692;233;65061;-70
2021/12/12 04:29:00;;;;;;;;;;;;;;;26.26;63.00;95735.41;608740;231;66738;-70
2021/12/12 04:31:29;;;;;;;;;;;;;;;26.23;63.59;95739.56;608669;233;66772;-72
2021/12/12 04:33:57;;;;;;;;;;;;;;;26.24;63.23;95751.11;608709;230;65014;-70
2021/12/12 04:36:26;;;;;;;;;;;;;;;26.22;64.07;95756.84;608684;233;66687;-70
2021/12/12 04:38:55;;;;;;;;;;;;;;;26.24;64.06;95757.28;601864;234;64534;-70
2021/12/12 04:41:23;;;;;;;;;;;;;;;26.21;64.58;95747.18;608649;233;65001;-67
2021/12/12 04:43:50;;;;;;;;;;;;;;;26.21;64.42;95751.78;608686;233;67172;-67
2021/12/12 04:46:25;;;;;;;;;;;;;;;26.16;62.93;95750.09;608689;233;64400;-67
2021/12/12 04:51:40;;;;;;;;;;;;;;;26.18;63.11;95768.62;608682;233;64667;-68
2021/12/12 04:54:09;;;;;;;;;;;;;;;26.16;63.01;95790.48;601769;234;66906;-66
2021/12/12 04:56:41;;;;;;;;;;;;;;;26.13;65.41;95791.15;608674;233;62748;-67
2021/12/12 04:59:10;;;;;;;;;;;;;;;26.12;64.51;95797.66;601902;235;66884;-68
2021/12/12 05:01:42;;;;;;;;;;;;;;;26.15;64.05;95788.91;607876;233;66839;-68
2021/12/12 05:04:11;;;;;;;;;;;;;;;26.14;62.85;95798.12;608683;233;65088;-68
2021/12/12 05:06:43;;;;;;;;;;;;;;;26.11;63.76;95798.80;601739;235;66931;-66
2021/12/12 05:09:18;;;;;;;;;;;;;;;26.13;65.12;95804.61;608677;233;66786;-67
2021/12/12 05:11:47;;;;;;;;;;;;;;;26.13;65.67;95808.08;597570;233;62703;-67
2021/12/12 05:14:22;;;;;;;;;;;;;;;26.10;64.05;95813.36;608507;230;66904;-68
2021/12/12 05:16:46;;;;;;;;;;;;;;;26.10;64.12;95832.98;608564;230;66665;-67
2021/12/12 05:19:15;;;;;;;;;;;;;;;26.07;63.50;95846.34;608682;233;65401;-68
2021/12/12 05:21:47;;;;;;;;;;;;;;;26.08;65.23;95839.82;608712;231;64438;-68
2021/12/12 05:24:17;;;;;;;;;;;;;;;26.09;64.87;95852.96;601838;235;66274;-67
2021/12/12 05:26:45;;;;;;;;;;;;;;;26.08;64.89;95861.36;608692;233;64806;-68
2021/12/12 05:29:23;;;;;;;;;;;;;;;26.09;63.61;95869.12;608703;233;67085;-68
2021/12/12 05:31:52;;;;;;;;;;;;;;;26.06;65.44;95871.70;608579;233;68061;-68
2021/12/12 05:34:20;;;;;;;;;;;;;;;26.04;64.96;95871.23;608751;233;62933;-67
2021/12/12 05:36:48;;;;;;;;;;;;;;;26.01;64.82;95880.75;608722;233;64278;-68
2021/12/12 05:39:16;;;;;;;;;;;;;;;25.99;64.75;95879.51;608670;233;66573;-68
2021/12/12 05:41:44;;;;;;;;;;;;;;;25.97;64.81;95869.06;608690;233;65109;-71
2021/12/12 05:44:12;;;;;;;;;;;;;;;26.01;65.21;95878.06;608662;233;66958;-71
2021/12/12 05:46:39;;;;;;;;;;;;;;;25.99;65.22;95882.20;608729;233;66477;-68
2021/12/12 05:49:07;;;;;;;;;;;;;;;25.98;64.51;95886.02;608720;233;65055;-68
2021/12/12 05:51:35;;;;;;;;;;;;;;;25.95;64.50;95900.14;608706;233;66578;-68
2021/12/12 05:54:03;;;;;;;;;;;;;;;25.92;64.44;95909.66;608731;233;64139;-68
2021/12/12 05:56:32;;;;;;;;;;;;;;;25.95;63.98;95910.91;608659;233;62765;-68
2021/12/12 05:59:01;;;;;;;;;;;;;;;25.93;64.73;95918.52;608714;233;67006;-71
2021/12/12 06:01:30;;;;;;;;;;;;;;;25.97;66.79;95924.80;608743;233;64406;-71
2021/12/12 06:03:58;;;;;;;;;;;;;;;25.90;64.21;95930.73;608730;233;62772;-72
2021/12/12 06:06:27;;;;;;;;;;;;;;;25.89;64.87;95929.95;608730;233;64395;-71
2021/12/12 06:08:56;;;;;;;;;;;;;;;25.88;64.97;95936.43;608710;233;66553;-71
2021/12/12 06:11:24;;;;;;;;;;;;;;;25.88;64.41;95954.48;608493;233;64826;-68
2021/12/12 06:13:52;;;;;;;;;;;;;;;25.89;67.05;95951.48;608534;233;64488;-67
2021/12/12 06:16:21;;;;;;;;;;;;;;;25.90;65.20;95955.73;608527;233;64491;-68
2021/12/12 06:18:50;;;;;;;;;;;;;;;25.88;65.02;95955.27;608522;233;61941;-68
2021/12/12 06:21:18;;;;;;;;;;;;;;;25.90;64.42;95969.20;608507;233;64492;-68
2021/12/12 06:23:46;;;;;;;;;;;;;;;25.90;66.21;95979.96;608369;233;64377;-71
2021/12/12 06:26:13;;;;;;;;;;;;;;;25.90;65.88;95979.18;608664;233;64862;-71
2021/12/12 06:28:41;;;;;;;;;;;;;;;25.89;65.29;95977.59;608721;233;66605;-71
2021/12/12 06:31:10;;;;;;;;;;;;;;;25.89;64.45;95986.47;608759;233;66451;-71
2021/12/12 06:33:39;;;;;;;;;;;;;;;25.90;66.80;95998.80;608712;233;65191;-71
2021/12/12 06:36:08;;;;;;;;;;;;;;;25.86;64.67;96000.59;601709;234;64487;-71
2021/12/12 06:38:36;;;;;;;;;;;;;;;25.83;66.77;96009.29;608650;233;66084;-71
2021/12/12 06:41:04;;;;;;;;;;;;;;;25.85;66.20;96019.74;608706;233;63020;-71
2021/12/12 06:43:32;;;;;;;;;;;;;;;25.85;67.95;96035.89;608602;233;64449;-71
2021/12/12 06:46:00;;;;;;;;;;;;;;;25.84;65.89;96045.87;608703;233;66698;-71
2021/12/12 06:48:28;;;;;;;;;;;;;;;25.84;66.88;96053.16;608706;233;64737;-71
2021/12/12 06:50:56;;;;;;;;;;;;;;;25.84;67.29;96072.78;608639;233;66481;-70
2021/12/12 06:53:25;;;;;;;;;;;;;;;25.84;66.73;96080.86;608711;233;66583;-71
2021/12/12 06:55:54;;;;;;;;;;;;;;;25.80;66.07;96087.18;608726;231;64858;-71
2021/12/12 06:58:22;;;;;;;;;;;;;;;25.83;64.80;96081.95;605663;233;64296;-71
2021/12/12 07:00:53;;;;;;;;;;;;;;;25.85;66.98;96095.10;598598;237;46375;-71
2021/12/12 07:03:21;;;;;;;;;;;;;;;25.84;67.08;96105.08;605275;234;65910;-72
2021/12/12 07:05:49;;;;;;;;;;;;;;;25.82;66.14;96117.25;605258;234;66350;-71
2021/12/12 07:08:17;;;;;;;;;;;;;;;25.84;65.49;96112.38;605313;234;66352;-71
2021/12/12 07:10:45;;;;;;;;;;;;;;;25.80;65.67;96114.87;605309;234;63665;-72
2021/12/12 07:13:13;;;;;;;;;;;;;;;25.84;65.40;96120.45;605126;234;64569;-71
2021/12/12 07:15:41;;;;;;;;;;;;;;;25.80;64.30;96128.33;605300;232;64399;-71
2021/12/12 07:18:11;;;;;;;;;;;;;;;25.79;66.16;96128.67;605184;232;65079;-71
2021/12/12 07:20:38;;;;;;;;;;;;;;;25.79;66.17;96132.15;605279;234;66690;-70
2021/12/12 07:23:08;;;;;;;;;;;;;;;25.76;65.14;96143.56;605293;234;66579;-71
2021/12/12 07:25:36;;;;;;;;;;;;;;;25.78;65.42;96159.37;598518;237;65010;-72
2021/12/12 07:28:04;;;;;;;;;;;;;;;25.73;63.96;96165.74;605276;234;66731;-72
2021/12/12 07:30:32;;;;;;;;;;;;;;;25.76;65.72;96159.71;605269;234;66574;-71
2021/12/12 07:33:00;;;;;;;;;;;;;;;25.77;66.22;96163.97;605237;234;65031;-66
2021/12/12 07:35:27;;;;;;;;;;;;;;;25.76;65.89;96162.40;605233;234;66725;-67
2021/12/12 07:37:55;;;;;;;;;;;;;;;25.77;64.90;96161.28;605274;234;66476;-67
2021/12/12 07:40:25;;;;;;;;;;;;;;;25.75;68.34;96166.19;598587;234;44976;-67
2021/12/12 07:42:53;;;;;;;;;;;;;;;25.73;66.79;96168.43;605244;232;64571;-67
2021/12/12 07:45:21;;;;;;;;;;;;;;;25.72;68.29;96172.22;605057;232;66511;-66
2021/12/12 07:47:49;;;;;;;;;;;;;;;25.69;68.32;96179.03;605072;234;65095;-67
2021/12/12 07:50:17;;;;;;;;;;;;;;;25.68;67.52;96190.91;605047;234;66442;-67
2021/12/12 07:52:47;;;;;;;;;;;;;;;25.70;65.14;96198.68;605118;234;64336;-67
2021/12/12 07:55:15;;;;;;;;;;;;;;;25.75;65.36;96214.63;605046;234;65022;-67
2021/12/12 07:57:43;;;;;;;;;;;;;;;25.72;65.39;96217.17;604929;234;64210;-67
2021/12/12 08:00:15;;;;;;;;;;;;;;;25.71;65.18;96221.77;605028;234;64795;-67
2021/12/12 08:02:43;;;;;;;;;;;;;;;25.73;66.29;96222.25;605029;234;63103;-66
2021/12/12 08:05:12;;;;;;;;;;;;;;;25.72;65.94;96214.48;605080;234;67570;-67
2021/12/12 08:07:40;;;;;;;;;;;;;;;25.72;67.52;96214.48;605086;234;66488;-67
2021/12/12 08:10:09;;;;;;;;;;;;;;;25.74;66.43;96226.52;604941;234;65144;-68
2021/12/12 08:12:37;;;;;;;;;;;;;;;25.69;67.47;96232.06;605053;234;66723;-67
2021/12/12 08:15:06;;;;;;;;;;;;;;;25.69;66.76;96232.84;605090;232;63932;-67
2021/12/12 08:17:33;;;;;;;;;;;;;;;25.72;67.36;96239.48;598308;237;65194;-67
2021/12/12 08:20:02;;;;;;;;;;;;;;;25.71;66.32;96251.37;605102;234;66138;-67
2021/12/12 08:22:30;;;;;;;;;;;;;;;25.71;67.14;96250.59;605022;234;64021;-68
2021/12/12 08:24:58;;;;;;;;;;;;;;;25.73;66.51;96253.73;605059;234;62725;-68
2021/12/12 08:27:26;;;;;;;;;;;;;;;25.72;65.70;96255.64;605103;234;64371;-68
2021/12/12 08:29:55;;;;;;;;;;;;;;;25.71;66.15;96248.69;605114;234;63862;-71
2021/12/12 08:32:24;;;;;;;;;;;;;;;25.71;66.42;96256.76;605101;234;65214;-69
2021/12/12 08:34:52;;;;;;;;;;;;;;;25.72;66.50;96261.02;604910;234;67266;-71
2021/12/12 08:37:20;;;;;;;;;;;;;;;25.72;66.31;96266.40;605127;234;64244;-71
2021/12/12 08:39:48;;;;;;;;;;;;;;;25.73;67.46;96272.56;605256;234;62966;-71
2021/12/12 08:42:15;;;;;;;;;;;;;;;25.74;66.20;96268.78;605307;234;64284;-71
2021/12/12 08:44:43;;;;;;;;;;;;;;;25.74;68.73;96277.64;605295;234;64236;-71
2021/12/12 08:47:12;;;;;;;;;;;;;;;25.77;67.36;96278.91;605262;234;62837;-71
2021/12/12 08:49:41;;;;;;;;;;;;;;;25.77;66.72;96293.15;605210;234;66766;-71
2021/12/12 08:52:28;;;;;;;;;;;;;;;25.78;67.84;96294.75;605267;234;66474;-71
2021/12/12 08:54:54;;;;;;;;;;;;;;;25.75;66.07;96299.95;598393;236;67795;-70
2021/12/12 09:00:03;;;;;;;;;;;;;;;25.73;67.44;96292.22;600200;233;66317;-70
2021/12/12 09:02:36;;;;;;;;;;;;;;;25.74;66.26;96291.10;608509;233;65069;-73
2021/12/12 09:05:02;;;;;;;;;;;;;;;25.76;66.85;96302.34;601602;235;66780;-72
2021/12/12 09:07:35;;;;;;;;;;;;;;;25.77;66.27;96301.22;601294;236;66113;-72
2021/12/12 09:10:10;;;;;;;;;;;;;;;25.78;65.44;96302.83;608488;233;62764;-72
2021/12/12 09:12:39;;;;;;;;;;;;;;;25.76;64.98;96302.34;608430;230;67632;-72
2021/12/12 09:15:14;;;;;;;;;;;;;;;25.76;65.64;96306.94;601631;234;66641;-72
2021/12/12 09:17:43;;;;;;;;;;;;;;;25.78;64.75;96304.70;608559;233;62720;-71
2021/12/12 09:20:16;;;;;;;;;;;;;;;25.80;68.20;96308.66;608096;233;64373;-72
2021/12/12 09:22:49;;;;;;;;;;;;;;;25.79;64.79;96307.09;608516;233;64246;-72
2021/12/12 09:25:23;;;;;;;;;;;;;;;25.76;68.10;96312.33;601630;235;65414;-71
2021/12/12 09:27:55;;;;;;;;;;;;;;;25.77;64.87;96314.68;608533;233;65216;-71
2021/12/12 09:30:24;;;;;;;;;;;;;;;25.79;67.08;96322.45;601569;235;64859;-72
2021/12/12 09:33:04;;;;;;;;;;;;;;;25.81;62.91;96321.02;608513;231;62712;-71
2021/12/12 09:35:39;;;;;;;;;;;;;;;25.87;65.22;96319.77;608470;233;66589;-72
2021/12/12 09:38:17;;;;;;;;;;;;;;;25.90;64.91;96318.34;608508;233;66681;-72
2021/12/12 09:40:55;;;;;;;;;;;;;;;25.91;62.66;96320.70;608432;233;62897;-71
2021/12/12 09:43:34;;;;;;;;;;;;;;;25.93;63.76;96325.77;608462;233;68080;-72
2021/12/12 09:46:27;;;;;;;;;;;;;;;25.97;65.28;96328.61;608517;233;64668;-72
2021/12/12 09:51:44;;;;;;;;;;;;;;;25.96;63.89;96327.83;608492;233;67038;-72
2021/12/12 09:54:16;;;;;;;;;;;;;;;26.00;62.29;96326.09;608401;233;66774;-68
2021/12/12 09:56:45;;;;;;;;;;;;;;;26.03;63.79;96325.45;608021;233;63036;-68
2021/12/12 09:59:14;;;;;;;;;;;;;;;26.05;61.83;96325.11;605051;233;72147;-68
2021/12/12 10:01:43;;;;;;;;;;;;;;;26.06;61.46;96326.71;604725;234;66787;-68
2021/12/12 10:04:29;;;;;;;;;;;;;;;26.08;61.77;96332.55;604748;232;65272;-68
2021/12/12 10:07:07;;;;;;;;;;;;;;;26.10;61.54;96327.63;605049;234;64713;-68
2021/12/12 10:09:39;;;;;;;;;;;;;;;26.10;61.38;96331.11;605122;234;64633;-72
2021/12/12 10:12:16;;;;;;;;;;;;;;;26.10;61.47;96336.50;604026;234;65134;-72
2021/12/12 10:15:03;;;;;;;;;;;;;;;26.11;61.31;96335.41;601783;236;66917;-72
2021/12/12 10:17:32;;;;;;;;;;;;;;;26.14;61.56;96328.59;601881;236;67357;-72
2021/12/12 10:20:01;;;;;;;;;;;;;;;26.15;60.30;96335.55;601780;236;65249;-72
2021/12/12 10:22:30;;;;;;;;;;;;;;;26.16;66.44;96329.03;601904;236;67760;-72
2021/12/12 10:25:11;;;;;;;;;;;;;;;26.13;69.39;96338.55;601778;236;64361;-72
2021/12/12 10:27:46;;;;;;;;;;;;;;;26.10;66.17;96341.88;601577;233;65101;-72
2021/12/12 10:30:27;;;;;;;;;;;;;;;26.11;68.41;96340.00;601770;236;66919;-72
2021/12/12 10:32:56;;;;;;;;;;;;;;;26.13;64.97;96348.53;601874;235;65289;-71
2021/12/12 10:35:41;;;;;;;;;;;;;;;26.13;65.64;96351.23;601933;235;62758;-71
2021/12/12 10:38:11;;;;;;;;;;;;;;;26.12;65.47;96355.83;601949;235;66938;-71
2021/12/12 10:40:40;;;;;;;;;;;;;;;26.12;65.84;96355.04;601423;235;66871;-67
2021/12/12 10:43:09;;;;;;;;;;;;;;;26.14;64.94;96358.21;601656;235;65034;-67
2021/12/12 10:45:37;;;;;;;;;;;;;;;26.15;67.35;96362.47;601745;235;67631;-67
2021/12/12 10:48:09;;;;;;;;;;;;;;;26.17;65.41;96360.27;601644;235;66856;-68
2021/12/12 10:50:54;;;;;;;;;;;;;;;26.19;63.58;96349.97;601641;235;64988;-67
2021/12/12 10:53:27;;;;;;;;;;;;;;;26.20;66.15;96348.84;601555;235;66336;-67
2021/12/12 10:56:16;;;;;;;;;;;;;;;26.16;65.86;96342.50;601710;235;67283;-69
2021/12/12 10:58:48;;;;;;;;;;;;;;;26.22;66.23;96359.28;602346;235;62994;-69
2021/12/12 11:01:20;;;;;;;;;;;;;;;26.21;64.24;96360.41;602441;235;67031;-68
2021/12/12 11:03:52;;;;;;;;;;;;;;;26.20;63.45;96369.60;602439;235;66622;-69
2021/12/12 11:06:33;;;;;;;;;;;;;;;26.22;65.62;96361.97;602458;235;65140;-68
2021/12/12 11:09:02;;;;;;;;;;;;;;;26.21;63.06;96360.41;602441;235;66858;-69
2021/12/12 11:11:37;;;;;;;;;;;;;;;26.22;64.09;96367.36;602396;235;65522;-66
2021/12/12 11:14:06;;;;;;;;;;;;;;;26.21;64.22;96365.79;602355;235;65170;-67
2021/12/12 11:16:38;;;;;;;;;;;;;;;26.24;65.08;96365.93;602386;235;66985;-68
2021/12/12 11:19:07;;;;;;;;;;;;;;;26.26;65.56;96362.92;601520;235;66965;-68
2021/12/12 11:21:36;;;;;;;;;;;;;;;26.25;64.41;96372.91;602163;235;64940;-68
2021/12/12 11:24:05;;;;;;;;;;;;;;;26.24;64.66;96373.22;602370;235;68610;-67
2021/12/12 11:26:34;;;;;;;;;;;;;;;26.26;64.15;96374.48;602350;235;64389;-67
2021/12/12 11:29:03;;;;;;;;;;;;;;;26.26;63.93;96369.09;602338;235;62772;-67
2021/12/12 11:31:44;;;;;;;;;;;;;;;26.24;63.64;96371.31;602484;235;64444;-67
2021/12/12 11:34:12;;;;;;;;;;;;;;;26.23;63.37;96374.34;602289;235;66682;-68
2021/12/12 11:36:48;;;;;;;;;;;;;;;26.24;64.66;96382.09;602223;235;62992;-68
2021/12/12 11:39:25;;;;;;;;;;;;;;;26.23;64.10;96395.89;597937;235;64390;-68
2021/12/12 11:42:00;;;;;;;;;;;;;;;26.24;64.14;96387.47;602493;235;64212;-68
2021/12/12 11:44:32;;;;;;;;;;;;;;;26.23;64.34;96391.30;602598;235;65648;-67
2021/12/12 11:47:10;;;;;;;;;;;;;;;26.25;64.81;96402.55;602611;235;64590;-71
2021/12/12 11:49:39;;;;;;;;;;;;;;;26.26;62.25;96406.02;602664;235;66903;-72
2021/12/12 11:52:08;;;;;;;;;;;;;;;26.22;62.54;96389.72;602438;235;64913;-72
2021/12/12 11:54:45;;;;;;;;;;;;;;;26.23;62.82;96396.68;602302;235;64374;-72
2021/12/12 11:57:17;;;;;;;;;;;;;;;26.22;66.97;96400.49;602288;235;66691;-71
2021/12/12 11:59:46;;;;;;;;;;;;;;;26.22;65.62;96403.19;601805;235;62685;-72
2021/12/12 12:02:18;;;;;;;;;;;;;;;26.22;63.73;96407.76;601710;235;66836;-71
2021/12/12 12:05:05;;;;;;;;;;;;;;;26.22;63.44;96403.19;601908;235;66705;-71
2021/12/12 12:07:37;;;;;;;;;;;;;;;26.23;65.07;96412.84;601867;235;63908;-72
2021/12/12 12:10:18;;;;;;;;;;;;;;;26.23;62.94;96412.05;601780;235;64605;-71
2021/12/12 12:13:06;;;;;;;;;;;;;;;26.23;63.14;96418.22;601863;235;66652;-71
2021/12/12 12:15:35;;;;;;;;;;;;;;;26.23;63.75;96412.84;601836;235;62835;-68
2021/12/12 12:18:04;;;;;;;;;;;;;;;26.25;64.04;96424.09;601821;235;67160;-68
2021/12/12 12:20:33;;;;;;;;;;;;;;;26.26;63.96;96430.27;601937;235;65568;-69
2021/12/12 12:23:06;;;;;;;;;;;;;;;26.24;63.67;96429.78;601895;235;66106;-68
2021/12/12 12:28:22;;;;;;;;;;;;;;;26.28;61.96;96436.91;601821;235;64699;-68
2021/12/12 12:31:09;;;;;;;;;;;;;;;26.28;63.78;96439.61;601710;235;62892;-67
2021/12/12 12:33:54;;;;;;;;;;;;;;;26.28;63.13;96447.69;601923;235;64427;-67
2021/12/12 12:36:40;;;;;;;;;;;;;;;26.30;63.87;96448.17;601888;235;66479;-69
2021/12/12 12:39:28;;;;;;;;;;;;;;;26.32;64.92;96456.70;601874;235;65131;-67
2021/12/12 12:42:13;;;;;;;;;;;;;;;26.31;64.97;96457.83;601905;235;66696;-67
2021/12/12 12:44:59;;;;;;;;;;;;;;;26.35;63.80;96466.05;601926;235;66620;-67
2021/12/12 12:47:34;;;;;;;;;;;;;;;26.34;62.32;96472.56;601913;235;65955;-67
2021/12/12 12:50:22;;;;;;;;;;;;;;;26.34;63.19;96472.56;601850;235;66789;-67
2021/12/12 12:52:57;;;;;;;;;;;;;;;26.34;63.30;96477.95;601633;233;66353;-67
2021/12/12 12:55:26;;;;;;;;;;;;;;;26.37;65.32;96488.08;600818;235;65294;-67
2021/12/12 12:57:58;;;;;;;;;;;;;;;26.35;63.30;96488.42;601810;235;64509;-68
2021/12/12 13:00:28;;;;;;;;;;;;;;;26.37;62.65;96488.08;601577;235;64334;-67
2021/12/12 13:03:13;;;;;;;;;;;;;;;26.38;64.29;96500.43;601884;235;65105;-67
2021/12/12 13:05:54;;;;;;;;;;;;;;;26.40;64.76;96511.69;601843;235;66920;-69
2021/12/12 13:08:40;;;;;;;;;;;;;;;26.41;62.69;96523.25;601756;235;67118;-69
2021/12/12 13:11:08;;;;;;;;;;;;;;;26.42;64.50;96516.77;601798;235;65195;-69
2021/12/12 13:13:39;;;;;;;;;;;;;;;26.43;63.64;96526.42;601826;233;64749;-68
2021/12/12 13:16:08;;;;;;;;;;;;;;;26.43;63.44;96521.83;601778;235;66710;-68
2021/12/12 13:18:55;;;;;;;;;;;;;;;26.44;62.51;96522.64;601797;235;65234;-68
2021/12/12 13:21:24;;;;;;;;;;;;;;;26.45;62.87;96526.91;601800;235;64839;-68
2021/12/12 13:24:10;;;;;;;;;;;;;;;26.45;64.08;96529.60;601713;235;64575;-68
2021/12/12 13:26:47;;;;;;;;;;;;;;;26.45;64.25;96537.69;601814;235;65301;-73
2021/12/12 13:29:31;;;;;;;;;;;;;;;26.46;63.83;96539.26;601469;235;66664;-73
2021/12/12 13:31:59;;;;;;;;;;;;;;;26.47;62.52;96540.86;601680;235;66780;-72
2021/12/12 13:34:28;;;;;;;;;;;;;;;26.47;63.83;96543.55;601812;235;62813;-72